createdAt,value
2023-03-02T04:57:47.074Z,3.63
2023-03-02T05:00:49.696Z,3.63
2023-03-02T05:03:53.057Z,3.10
2023-03-02T05:06:55.816Z,3.27
2023-03-02T05:09:57.916Z,3.28
2023-03-02T05:13:04.824Z,3.22
2023-03-02T05:16:07.179Z,3.40
2023-03-02T05:19:12.511Z,3.38
2023-03-02T05:22:14.684Z,3.34
2023-03-02T05:25:17.116Z,3.24
2023-03-02T05:28:20.690Z,3.52
2023-03-02T05:31:26.346Z,3.56
2023-03-02T05:34:28.792Z,3.61
2023-03-02T05:37:31.154Z,3.61
2023-03-02T05:40:33.718Z,3.75
2023-03-02T05:43:36.348Z,3.66
2023-03-02T05:46:38.558Z,3.65
2023-03-02T05:49:40.981Z,3.72
2023-03-02T05:52:43.081Z,3.67
2023-03-02T05:55:45.431Z,3.58
2023-03-02T05:58:47.553Z,3.76
2023-03-02T06:01:50.324Z,3.89
2023-03-02T06:04:52.693Z,4.06
2023-03-02T06:07:54.847Z,3.85
2023-03-02T06:10:57.761Z,3.71
2023-03-02T06:14:02.092Z,3.95
2023-03-02T06:17:04.729Z,3.86
2023-03-02T06:20:11.166Z,3.94
2023-03-02T06:23:14.018Z,3.98
2023-03-02T06:26:16.572Z,4.43
2023-03-02T06:29:18.993Z,4.48
2023-03-02T06:32:21.399Z,4.38
2023-03-02T06:35:24.351Z,4.41
2023-03-02T06:38:26.584Z,4.51
2023-03-02T06:41:28.984Z,4.72
2023-03-02T06:44:31.224Z,4.82
2023-03-02T06:47:33.978Z,4.98
2023-03-02T06:50:36.204Z,5.03
2023-03-02T06:53:38.600Z,5.22
2023-03-02T06:56:41.177Z,5.55
2023-03-02T06:59:43.641Z,5.79
2023-03-02T07:02:46.559Z,6.28
2023-03-02T07:05:49.996Z,6.53
2023-03-02T07:08:52.187Z,6.58
2023-03-02T07:11:54.583Z,6.81
2023-03-02T07:14:57.237Z,7.01
2023-03-02T07:17:59.667Z,7.12
2023-03-02T07:21:02.320Z,7.20
2023-03-02T07:24:05.133Z,7.14
2023-03-02T07:27:07.408Z,7.19
2023-03-02T07:30:10.723Z,7.71
2023-03-02T07:33:12.873Z,7.81
2023-03-02T07:36:15.808Z,7.89
2023-03-02T07:39:18.915Z,8.06
2023-03-02T07:42:21.325Z,8.28
2023-03-02T07:45:25.611Z,8.43
2023-03-02T07:48:28.017Z,8.18
2023-03-02T07:51:30.623Z,8.36
2023-03-02T07:54:33.195Z,8.47
2023-03-02T07:57:35.873Z,8.50
2023-03-02T08:00:41.260Z,8.53
2023-03-02T08:03:45.055Z,8.57
2023-03-02T08:06:47.199Z,8.73
2023-03-02T08:09:50.555Z,8.80
2023-03-02T08:12:52.752Z,8.74
2023-03-02T08:16:01.844Z,8.93
2023-03-02T08:19:04.192Z,8.89
2023-03-02T08:22:06.637Z,9.11
2023-03-02T08:25:08.949Z,9.22
2023-03-02T08:28:11.608Z,9.21
2023-03-02T08:31:14.506Z,9.11
2023-03-02T08:34:17.074Z,9.29
2023-03-02T08:37:19.493Z,9.28
2023-03-02T08:40:21.946Z,9.28
2023-03-02T08:43:25.435Z,9.45
2023-03-02T08:46:27.891Z,9.56
2023-03-02T08:49:30.883Z,9.59
2023-03-02T08:52:34.667Z,9.37
2023-03-02T08:55:37.881Z,9.45
2023-03-02T08:58:41.855Z,9.47
2023-03-02T09:01:44.116Z,9.41
2023-03-02T09:04:47.051Z,9.38
2023-03-02T09:07:50.126Z,9.68
2023-03-02T09:10:53.115Z,9.43
2023-03-02T09:13:56.269Z,9.72
2023-03-02T09:16:58.988Z,9.77
2023-03-02T09:20:01.163Z,9.75
2023-03-02T09:23:03.609Z,9.82
2023-03-02T09:26:06.066Z,9.76
2023-03-02T09:29:09.807Z,9.65
2023-03-02T09:32:13.510Z,9.94
2023-03-02T09:35:16.135Z,9.89
2023-03-02T09:38:19.060Z,9.77
2023-03-02T09:41:21.749Z,9.86
2023-03-02T09:45:15.060Z,10.49
2023-03-02T09:48:37.407Z,10.15
2023-03-02T09:51:58.264Z,10.22
2023-03-02T09:55:13.651Z,10.30
2023-03-02T09:58:19.992Z,10.29
2023-03-02T10:01:34.584Z,10.25
2023-03-02T10:04:44.314Z,10.29
2023-03-02T10:07:47.918Z,10.61
2023-03-02T10:11:23.563Z,10.50
2023-03-02T10:14:39.272Z,10.56
2023-03-02T10:18:10.920Z,10.43
2023-03-02T10:21:22.600Z,10.67
2023-03-02T10:24:39.922Z,10.35
2023-03-02T10:27:49.712Z,10.81
2023-03-02T10:31:09.479Z,10.96
2023-03-02T10:34:12.392Z,10.71
2023-03-02T10:37:18.751Z,10.75
2023-03-02T10:41:00.119Z,10.81
2023-03-02T10:44:08.721Z,11.07
2023-03-02T10:47:26.937Z,11.08
2023-03-02T10:50:30.766Z,11.24
2023-03-02T10:53:33.172Z,11.22
2023-03-02T10:56:36.252Z,11.20
2023-03-02T10:59:43.816Z,11.26
2023-03-02T11:02:56.939Z,11.29
2023-03-02T11:06:16.583Z,11.47
2023-03-02T11:09:19.365Z,11.42
2023-03-02T11:12:21.541Z,11.43
2023-03-02T11:15:40.329Z,11.44
2023-03-02T11:19:12.001Z,11.56
2023-03-02T11:22:32.691Z,11.79
2023-03-02T11:25:40.446Z,11.66
2023-03-02T11:28:49.069Z,11.67
2023-03-02T11:31:56.339Z,11.73
2023-03-02T11:35:13.828Z,11.84
2023-03-02T11:38:54.795Z,11.94
2023-03-02T11:41:58.573Z,12.03
2023-03-02T11:45:11.129Z,11.96
2023-03-02T11:48:29.804Z,11.97
2023-03-02T11:51:50.083Z,11.89
2023-03-02T11:55:03.317Z,11.93
2023-03-02T11:58:06.222Z,12.00
2023-03-02T12:01:17.765Z,11.99
2023-03-02T12:04:39.057Z,12.04
2023-03-02T12:07:41.622Z,12.19
2023-03-02T12:11:15.490Z,12.01
2023-03-02T12:14:47.120Z,12.02
2023-03-02T12:17:49.621Z,12.30
2023-03-02T12:21:10.390Z,12.23
2023-03-02T12:24:31.032Z,12.25
2023-03-02T12:27:39.727Z,12.17
2023-03-02T12:30:42.513Z,12.45
2023-03-02T12:33:50.874Z,12.29
2023-03-02T12:37:33.325Z,12.25
2023-03-02T12:41:17.502Z,12.23
2023-03-02T12:44:43.884Z,12.33
2023-03-02T12:47:51.432Z,12.38
2023-03-02T12:51:02.313Z,12.34
2023-03-02T12:54:06.745Z,12.49
2023-03-02T12:57:15.803Z,12.56
2023-03-02T13:00:21.073Z,12.68
2023-03-02T13:03:24.600Z,12.65
2023-03-02T13:06:30.610Z,12.53
2023-03-02T13:09:33.031Z,12.75
2023-03-02T13:12:36.663Z,12.70
2023-03-02T13:15:59.990Z,12.79
2023-03-02T13:19:11.375Z,12.71
2023-03-02T13:22:14.917Z,12.62
2023-03-02T13:25:29.167Z,12.71
2023-03-02T13:28:34.481Z,12.58
2023-03-02T13:31:36.808Z,12.74
2023-03-02T13:34:49.462Z,12.84
2023-03-02T13:38:02.314Z,12.90
2023-03-02T13:41:05.507Z,12.71
2023-03-02T13:44:19.936Z,12.74
2023-03-02T13:47:24.611Z,12.74
2023-03-02T13:50:29.922Z,12.81
2023-03-02T13:53:37.823Z,12.90
2023-03-02T13:56:41.210Z,13.04
2023-03-02T13:59:44.986Z,12.94
2023-03-02T14:02:48.641Z,12.94
2023-03-02T14:05:51.931Z,12.85
2023-03-02T14:08:54.076Z,12.99
2023-03-02T14:11:57.742Z,12.85
2023-03-02T14:15:03.525Z,12.91
2023-03-02T14:18:31.036Z,13.16
2023-03-02T14:21:33.526Z,13.13
2023-03-02T14:24:36.109Z,13.13
2023-03-02T14:27:38.940Z,13.17
2023-03-02T14:30:44.427Z,13.10
2023-03-02T14:33:46.580Z,13.19
2023-03-02T14:36:52.425Z,13.26
2023-03-02T14:39:55.729Z,13.29
2023-03-02T14:42:58.180Z,13.21
2023-03-02T14:46:00.305Z,13.09
2023-03-02T14:49:02.784Z,13.02
2023-03-02T14:52:07.552Z,13.15
2023-03-02T14:55:25.834Z,13.14
2023-03-02T14:58:33.767Z,13.13
2023-03-02T15:01:36.371Z,13.07
2023-03-02T15:04:38.579Z,13.02
2023-03-02T15:07:41.340Z,13.06
2023-03-02T15:10:43.562Z,13.17
2023-03-02T15:13:45.967Z,13.09
2023-03-02T15:16:48.066Z,13.10
2023-03-02T15:19:50.442Z,12.93
2023-03-02T15:22:52.841Z,12.78
2023-03-02T15:26:02.239Z,12.79
2023-03-02T15:29:04.943Z,12.74
2023-03-02T15:32:07.500Z,12.93
2023-03-02T15:35:12.432Z,13.03
2023-03-02T15:38:14.992Z,12.84
2023-03-02T15:41:17.446Z,12.81
2023-03-02T15:44:23.748Z,12.72
2023-03-02T15:47:25.992Z,12.64
2023-03-02T15:50:28.371Z,12.61
2023-03-02T15:53:32.818Z,12.61
2023-03-02T15:56:43.740Z,12.48
2023-03-02T15:59:46.799Z,12.49
2023-03-02T16:02:49.903Z,12.52
2023-03-02T16:05:52.612Z,12.56
2023-03-02T16:08:54.750Z,12.39
2023-03-02T16:11:57.676Z,12.35
2023-03-02T16:14:59.838Z,12.31
2023-03-02T16:18:02.194Z,12.28
2023-03-02T16:21:04.956Z,12.22
2023-03-02T16:24:07.865Z,12.13
2023-03-02T16:27:10.117Z,12.05
2023-03-02T16:30:13.280Z,11.97
2023-03-02T16:33:17.913Z,11.93
2023-03-02T16:36:21.616Z,11.87
2023-03-02T16:39:23.847Z,11.77
2023-03-02T16:42:28.417Z,11.63
2023-03-02T16:45:30.515Z,11.60
2023-03-02T16:48:32.875Z,11.48
2023-03-02T16:51:34.949Z,11.40
2023-03-02T16:54:37.307Z,11.33
